createdAt,value
2023-03-10T00:01:20.593Z,98688.34
2023-03-10T00:03:48.158Z,98674.75
2023-03-10T00:06:18.744Z,98676.44
2023-03-10T00:08:46.130Z,98676.44
2023-03-10T00:11:14.394Z,98667.97
2023-03-10T00:13:41.875Z,98662.91
2023-03-10T00:16:16.548Z,98656.16
2023-03-10T00:18:43.941Z,98654.44
2023-03-10T00:21:15.992Z,98640.81
2023-03-10T00:23:43.249Z,98655.28
2023-03-10T00:26:13.111Z,98654.44
2023-03-10T00:28:40.156Z,98656.16
2023-03-10T00:31:11.228Z,98652.78
2023-03-10T00:33:39.041Z,98657.84
2023-03-10T00:36:06.247Z,98660.41
2023-03-10T00:38:34.287Z,98656.19
2023-03-10T00:41:03.727Z,98641.78
2023-03-10T00:43:31.200Z,98641.78
2023-03-10T00:45:58.817Z,98620.59
2023-03-10T00:48:26.253Z,98622.31
2023-03-10T00:50:53.545Z,98608.75
2023-03-10T00:53:20.762Z,98592.63
2023-03-10T00:56:04.662Z,98597.72
2023-03-10T00:58:33.167Z,98591.75
2023-03-10T01:01:01.161Z,98571.44
2023-03-10T01:03:29.525Z,98553.59
2023-03-10T01:05:57.538Z,98566.31
2023-03-10T01:08:25.008Z,98575.69
2023-03-10T01:10:52.130Z,98564.66
2023-03-10T01:13:19.906Z,98553.63
2023-03-10T01:15:51.162Z,98554.47
2023-03-10T01:18:20.357Z,98554.47
2023-03-10T01:20:48.257Z,98558.72
2023-03-10T01:23:21.004Z,98551.06
2023-03-10T01:25:49.754Z,98537.53
2023-03-10T01:28:19.082Z,98540.06
2023-03-10T01:30:46.634Z,98527.38
2023-03-10T01:33:15.379Z,98530.78
2023-03-10T01:35:42.986Z,98533.28
2023-03-10T01:38:11.820Z,98526.53
2023-03-10T01:40:39.313Z,98517.22
2023-03-10T01:43:17.750Z,98515.53
2023-03-10T01:45:47.663Z,98496.84
2023-03-10T01:48:17.978Z,98496.84
2023-03-10T01:50:48.281Z,98503.63
2023-03-10T01:53:19.429Z,98510.44
2023-03-10T01:55:50.688Z,98507.91
2023-03-10T01:58:20.252Z,98500.25
2023-03-10T02:00:47.402Z,98488.38
2023-03-10T02:03:20.553Z,98474.00
2023-03-10T02:05:56.351Z,98464.66
2023-03-10T02:08:25.519Z,98473.97
2023-03-10T02:10:53.129Z,98479.88
2023-03-10T02:13:21.766Z,98485.84
2023-03-10T02:15:49.779Z,98491.78
2023-03-10T02:18:18.369Z,98490.94
2023-03-10T02:21:10.759Z,98476.53
2023-03-10T02:24:01.635Z,98464.66
2023-03-10T02:26:53.475Z,98465.50
2023-03-10T02:29:45.441Z,98451.94
2023-03-10T02:32:21.402Z,98439.19
2023-03-10T02:34:48.511Z,98433.25
2023-03-10T02:37:25.328Z,98428.19
2023-03-10T02:39:54.525Z,98425.66
2023-03-10T02:42:23.413Z,98410.38
2023-03-10T02:44:50.715Z,98390.00
2023-03-10T02:47:17.833Z,98405.31
2023-03-10T02:49:45.241Z,98388.34
2023-03-10T02:52:35.105Z,98378.16
2023-03-10T02:55:02.290Z,98382.41
2023-03-10T02:57:29.508Z,98374.78
2023-03-10T02:59:56.638Z,98373.06
2023-03-10T03:02:23.834Z,98354.44
2023-03-10T03:04:50.871Z,98361.22
2023-03-10T03:07:18.049Z,98351.06
2023-03-10T03:09:45.198Z,98355.31
2023-03-10T03:12:12.514Z,98335.81
2023-03-10T03:14:39.591Z,98342.56
2023-03-10T03:17:07.410Z,98339.19
2023-03-10T03:19:34.833Z,98340.03
2023-03-10T03:22:02.099Z,98337.47
2023-03-10T03:24:29.838Z,98337.47
2023-03-10T03:26:56.963Z,98327.31
2023-03-10T03:29:26.622Z,98323.94
2023-03-10T03:31:54.204Z,98325.63
2023-03-10T03:34:25.310Z,98326.47
2023-03-10T03:36:55.835Z,98323.09
2023-03-10T03:39:28.717Z,98317.13
2023-03-10T03:41:59.494Z,98310.38
2023-03-10T03:44:31.468Z,98301.91
2023-03-10T03:46:58.694Z,98307.00
2023-03-10T03:49:26.628Z,98296.81
2023-03-10T03:51:54.006Z,98290.91
2023-03-10T03:54:23.315Z,98278.16
2023-03-10T03:56:50.443Z,98274.75
2023-03-10T03:59:17.794Z,98276.47
2023-03-10T04:01:45.139Z,98262.06
2023-03-10T04:04:12.393Z,98258.66
2023-03-10T04:06:40.002Z,98252.72
2023-03-10T04:09:10.644Z,98244.28
2023-03-10T04:11:38.638Z,98235.78
2023-03-10T04:14:06.170Z,98239.19
2023-03-10T04:16:33.588Z,98232.38
2023-03-10T04:19:02.341Z,98213.72
2023-03-10T04:21:30.046Z,98213.75
2023-03-10T04:23:58.701Z,98210.34
2023-03-10T04:26:29.188Z,98206.09
2023-03-10T04:28:58.242Z,98197.66
2023-03-10T04:31:26.926Z,98208.66
2023-03-10T04:33:54.212Z,98199.31
2023-03-10T04:36:22.034Z,98188.31
2023-03-10T04:38:53.445Z,98188.31
2023-03-10T04:41:23.252Z,98178.97
2023-03-10T04:43:50.483Z,98179.81
2023-03-10T04:46:18.817Z,98160.31
2023-03-10T04:48:46.557Z,98167.97
2023-03-10T04:51:14.534Z,98149.31
2023-03-10T04:53:47.792Z,98139.16
2023-03-10T04:56:15.479Z,98142.53
2023-03-10T04:58:43.423Z,98133.19
2023-03-10T05:01:12.894Z,98128.13
2023-03-10T05:03:44.862Z,98110.31
2023-03-10T05:06:15.751Z,98119.63
2023-03-10T05:08:46.320Z,98076.44
2023-03-10T05:11:14.270Z,98101.84
2023-03-10T05:13:41.703Z,98102.69
2023-03-10T05:16:17.608Z,98111.13
2023-03-10T05:18:46.857Z,98092.50
2023-03-10T05:21:17.131Z,98097.56
2023-03-10T05:23:45.893Z,98100.94
2023-03-10T05:26:14.758Z,98090.78
2023-03-10T05:28:42.407Z,98084.84
2023-03-10T05:31:12.671Z,98074.66
2023-03-10T05:33:43.002Z,98071.25
2023-03-10T05:36:13.172Z,98066.13
2023-03-10T05:38:41.341Z,98054.31
2023-03-10T05:41:12.809Z,98042.44
2023-03-10T05:43:40.820Z,98038.22
2023-03-10T05:46:09.413Z,98050.06
2023-03-10T05:48:43.388Z,98059.38
2023-03-10T05:51:12.839Z,98057.66
2023-03-10T05:53:41.068Z,98053.41
2023-03-10T05:56:17.588Z,98060.19
2023-03-10T05:58:47.663Z,98050.88
2023-03-10T06:01:18.220Z,98043.25
2023-03-10T06:03:45.427Z,98029.69
2023-03-10T06:06:12.977Z,98030.50
2023-03-10T06:08:40.477Z,98035.56
2023-03-10T06:11:07.609Z,98016.06
2023-03-10T06:13:35.154Z,98018.63
2023-03-10T06:16:04.715Z,98017.75
2023-03-10T06:18:32.280Z,98011.81
2023-03-10T06:20:59.359Z,98003.34
2023-03-10T06:23:26.921Z,98002.50
2023-03-10T06:26:07.102Z,97999.94
2023-03-10T06:28:36.912Z,97996.53
2023-03-10T06:31:09.919Z,97991.44
2023-03-10T06:33:37.236Z,97993.97
2023-03-10T06:36:05.207Z,97985.47
2023-03-10T06:38:32.416Z,97988.03
2023-03-10T06:40:59.554Z,97988.00
2023-03-10T06:43:26.730Z,97977.00
2023-03-10T06:45:53.856Z,97989.66
2023-03-10T06:48:20.916Z,97998.19
2023-03-10T06:50:50.642Z,97992.22
2023-03-10T06:53:20.211Z,97981.19
2023-03-10T06:56:00.618Z,97987.09
2023-03-10T06:58:28.847Z,97978.59
2023-03-10T07:00:56.329Z,97968.41
2023-03-10T07:03:25.204Z,97973.47
2023-03-10T07:05:56.608Z,97965.84
2023-03-10T07:08:23.673Z,97955.66
2023-03-10T07:10:51.819Z,97970.09
2023-03-10T07:13:19.032Z,97979.38
2023-03-10T07:15:46.404Z,97970.88
2023-03-10T07:18:14.269Z,97954.72
2023-03-10T07:20:43.206Z,97952.19
2023-03-10T07:23:10.349Z,97962.34
2023-03-10T07:25:38.478Z,97958.94
2023-03-10T07:28:06.464Z,97957.25
2023-03-10T07:30:34.489Z,97953.03
2023-03-10T07:33:01.583Z,97955.53
2023-03-10T07:35:28.815Z,97953.81
2023-03-10T07:37:55.902Z,97943.66
2023-03-10T07:40:25.262Z,97947.88
2023-03-10T07:42:54.903Z,97948.69
2023-03-10T07:45:23.690Z,97942.75
2023-03-10T07:47:52.034Z,97938.50
2023-03-10T07:50:20.544Z,97932.56
2023-03-10T07:52:49.278Z,97934.25
2023-03-10T07:55:16.650Z,97932.56
2023-03-10T07:57:43.793Z,97927.47
2023-03-10T08:00:11.366Z,97928.31
2023-03-10T08:02:41.839Z,97921.53
2023-03-10T08:05:11.052Z,97935.09
2023-03-10T08:07:38.322Z,97919.81
2023-03-10T08:10:06.677Z,97916.44
2023-03-10T08:12:34.391Z,97924.91
2023-03-10T08:15:01.516Z,97918.13
2023-03-10T08:17:33.657Z,97920.66
2023-03-10T08:20:01.472Z,97918.91
2023-03-10T08:22:28.927Z,97913.84
2023-03-10T08:24:56.549Z,97914.66
2023-03-10T08:27:23.650Z,97902.78
2023-03-10T08:29:50.717Z,97907.00
2023-03-10T08:32:20.079Z,97907.84
2023-03-10T08:34:47.555Z,97895.16
2023-03-10T08:37:15.078Z,97901.06
2023-03-10T08:39:42.204Z,97897.69
2023-03-10T08:42:13.343Z,97891.75
2023-03-10T08:44:40.808Z,97884.91
2023-03-10T08:47:08.658Z,97889.13
2023-03-10T08:49:36.425Z,97881.50
2023-03-10T08:52:03.966Z,97876.34
2023-03-10T08:54:32.623Z,97876.34
2023-03-10T08:57:00.160Z,97872.09
2023-03-10T08:59:27.563Z,97873.81
2023-03-10T09:01:54.744Z,97872.06
2023-03-10T09:04:21.822Z,97872.03
2023-03-10T09:06:49.039Z,97877.91
2023-03-10T09:09:16.437Z,97882.13
2023-03-10T09:11:43.750Z,97878.75
2023-03-10T09:14:12.522Z,97877.88
2023-03-10T09:16:40.676Z,97871.91
2023-03-10T09:19:08.239Z,97877.00
2023-03-10T09:21:35.492Z,97873.56
2023-03-10T09:24:03.392Z,97871.84
2023-03-10T09:26:31.344Z,97870.09
2023-03-10T09:28:58.396Z,97871.78
2023-03-10T09:31:30.298Z,97863.28
2023-03-10T09:33:57.763Z,97861.53
2023-03-10T09:36:25.172Z,97863.19
2023-03-10T09:38:52.735Z,97869.94
2023-03-10T09:41:47.772Z,97866.50
2023-03-10T09:44:31.022Z,97865.56
2023-03-10T09:47:19.650Z,97857.88
2023-03-10T09:50:16.252Z,97859.59
2023-03-10T09:52:55.706Z,97844.34
2023-03-10T09:55:29.832Z,97852.78
2023-03-10T09:57:58.275Z,97858.75
2023-03-10T10:00:33.369Z,97857.88
2023-03-10T10:03:09.146Z,97851.06
2023-03-10T10:05:39.041Z,97848.56
2023-03-10T10:08:20.327Z,97849.34
2023-03-10T10:10:53.596Z,97845.03
2023-03-10T10:13:23.415Z,97850.94
2023-03-10T10:16:24.445Z,97847.50
2023-03-10T10:19:20.438Z,97840.66
2023-03-10T10:22:13.912Z,97845.72
2023-03-10T10:24:41.250Z,97837.97
2023-03-10T10:27:08.457Z,97829.38
2023-03-10T10:29:38.440Z,97831.78
2023-03-10T10:32:07.948Z,97834.28
2023-03-10T10:34:36.590Z,97835.06
2023-03-10T10:37:20.456Z,97828.16
2023-03-10T10:39:50.025Z,97816.19
2023-03-10T10:42:30.581Z,97817.72
2023-03-10T10:45:21.755Z,97821.81
2023-03-10T10:47:51.385Z,97810.66
2023-03-10T10:50:20.248Z,97819.09
2023-03-10T10:52:50.632Z,97817.28
2023-03-10T10:55:36.014Z,97813.75
2023-03-10T10:58:06.903Z,97814.56
2023-03-10T11:00:39.817Z,97806.00
2023-03-10T11:03:40.823Z,97809.28
2023-03-10T11:06:40.165Z,97804.88
2023-03-10T11:09:13.512Z,97801.34
2023-03-10T11:12:02.434Z,97805.41
2023-03-10T11:14:41.373Z,97795.06
2023-03-10T11:17:27.450Z,97795.75
2023-03-10T11:20:25.257Z,97792.13
2023-03-10T11:22:58.357Z,97779.06
2023-03-10T11:25:52.177Z,97784.59
2023-03-10T11:28:47.520Z,97785.06
2023-03-10T11:31:37.136Z,97780.59
2023-03-10T11:34:22.835Z,97788.84
2023-03-10T11:37:09.151Z,97790.41
2023-03-10T11:39:43.399Z,97780.00
2023-03-10T11:42:34.719Z,97778.34
2023-03-10T11:45:23.310Z,97785.09
2023-03-10T11:48:06.728Z,97779.88
2023-03-10T11:50:36.757Z,97783.19
2023-03-10T11:53:19.358Z,97781.31
2023-03-10T11:55:48.606Z,97781.19
2023-03-10T11:58:24.393Z,97768.41
2023-03-10T12:00:54.431Z,97779.22
2023-03-10T12:03:31.623Z,97772.38
2023-03-10T12:06:00.975Z,97773.97
2023-03-10T12:08:34.756Z,97774.88
2023-03-10T12:11:05.114Z,97776.53
2023-03-10T12:13:46.512Z,97790.25
2023-03-10T12:16:22.486Z,97774.06
2023-03-10T12:18:49.876Z,97769.88
2023-03-10T12:21:28.860Z,97772.44
2023-03-10T12:23:58.405Z,97774.16
2023-03-10T12:26:37.922Z,97775.91
2023-03-10T12:29:32.948Z,97766.47
2023-03-10T12:32:00.467Z,97768.88
2023-03-10T12:34:31.697Z,97769.50
2023-03-10T12:37:11.137Z,97771.91
2023-03-10T12:39:44.897Z,97771.72
2023-03-10T12:42:30.230Z,97774.22
2023-03-10T12:45:11.610Z,97774.09
2023-03-10T12:48:03.649Z,97774.88
2023-03-10T12:50:47.526Z,97773.03
2023-03-10T12:53:23.797Z,97767.81
2023-03-10T12:56:12.902Z,97766.03
2023-03-10T12:58:46.022Z,97772.84
2023-03-10T13:01:17.610Z,97772.66
2023-03-10T13:03:52.613Z,97774.50
2023-03-10T13:06:22.332Z,97788.22
2023-03-10T13:08:58.859Z,97786.59
2023-03-10T13:11:40.088Z,97781.66
2023-03-10T13:14:20.886Z,97788.63
2023-03-10T13:17:00.734Z,97783.66
2023-03-10T13:19:30.781Z,97788.97
2023-03-10T13:21:58.526Z,97785.75
2023-03-10T13:24:30.492Z,97791.75
2023-03-10T13:27:12.823Z,97795.31
2023-03-10T13:29:41.550Z,97801.34
2023-03-10T13:32:19.181Z,97810.84
2023-03-10T13:34:46.263Z,97796.47
2023-03-10T13:37:13.330Z,97801.53
2023-03-10T13:39:40.479Z,97806.63
2023-03-10T13:42:42.838Z,97797.22
2023-03-10T13:45:22.176Z,97796.31
2023-03-10T13:47:50.838Z,97790.25
2023-03-10T13:50:18.439Z,97794.38
2023-03-10T13:52:57.925Z,97790.72
2023-03-10T13:55:25.762Z,97797.28
2023-03-10T13:57:54.528Z,97794.47
2023-03-10T14:00:24.722Z,97791.72
2023-03-10T14:02:52.972Z,97790.78
2023-03-10T14:05:41.718Z,97797.53
2023-03-10T14:08:20.320Z,97789.78
2023-03-10T14:10:47.684Z,97789.78
2023-03-10T14:13:40.503Z,97786.38
2023-03-10T14:16:08.193Z,97782.91
2023-03-10T14:18:37.816Z,97784.47
2023-03-10T14:21:52.459Z,97783.50
2023-03-10T14:24:28.140Z,97781.66
2023-03-10T14:27:00.768Z,97779.84
2023-03-10T14:29:27.913Z,97777.19
2023-03-10T14:31:55.010Z,97769.53
2023-03-10T14:34:23.625Z,97782.31
2023-03-10T14:36:50.643Z,97774.75
2023-03-10T14:39:18.112Z,97779.03
2023-03-10T14:41:45.408Z,97784.28
2023-03-10T14:44:12.655Z,97774.09
2023-03-10T14:46:39.922Z,97770.72
2023-03-10T14:49:13.342Z,97774.19
2023-03-10T14:51:40.389Z,97771.72
2023-03-10T14:54:27.750Z,97776.03
2023-03-10T14:57:01.690Z,97776.91
2023-03-10T14:59:29.209Z,97777.75
2023-03-10T15:01:57.506Z,97773.50
2023-03-10T15:04:24.677Z,97777.78
2023-03-10T15:06:51.859Z,97770.06
2023-03-10T15:09:20.016Z,97771.00
2023-03-10T15:11:47.320Z,97760.66
2023-03-10T15:14:18.458Z,97753.81
2023-03-10T15:16:45.954Z,97757.19
2023-03-10T15:19:22.968Z,97757.28
2023-03-10T15:21:50.152Z,97755.78
2023-03-10T15:24:17.507Z,97766.19
2023-03-10T15:26:45.038Z,97764.69
2023-03-10T15:29:17.799Z,97763.97
2023-03-10T15:31:44.934Z,97767.56
2023-03-10T15:34:12.099Z,97768.53
2023-03-10T15:36:39.397Z,97756.06
2023-03-10T15:39:06.453Z,97761.22
2023-03-10T15:41:38.539Z,97758.78
2023-03-10T15:44:06.809Z,97763.19
2023-03-10T15:46:34.100Z,97767.56
2023-03-10T15:49:03.575Z,97761.72
2023-03-10T15:51:30.700Z,97767.81
2023-03-10T15:53:57.878Z,97781.63
2023-03-10T15:56:26.115Z,97802.19
2023-03-10T15:58:53.397Z,97800.78
2023-03-10T16:01:21.187Z,97777.25
2023-03-10T16:03:51.601Z,97795.28
2023-03-10T16:06:18.769Z,97801.34
2023-03-10T16:08:47.272Z,97801.50
2023-03-10T16:11:20.354Z,97806.72
2023-03-10T16:13:49.795Z,97805.28
2023-03-10T16:16:18.852Z,97808.69
2023-03-10T16:18:47.558Z,97807.16
2023-03-10T16:21:17.503Z,97802.19
2023-03-10T16:23:45.007Z,97798.91
2023-03-10T16:26:14.639Z,97792.97
2023-03-10T16:28:44.423Z,97783.66
2023-03-10T16:31:13.558Z,97785.28
2023-03-10T16:33:41.326Z,97778.31
2023-03-10T16:36:13.296Z,97777.47
2023-03-10T16:38:40.616Z,97777.47
2023-03-10T16:41:09.792Z,97786.72
2023-03-10T16:43:37.260Z,97781.53
2023-03-10T16:46:30.314Z,97788.31
2023-03-10T16:48:58.900Z,97787.41
2023-03-10T16:51:30.582Z,97783.13
2023-03-10T16:54:03.321Z,97784.81
2023-03-10T16:56:32.249Z,97793.34
2023-03-10T16:58:59.617Z,97798.59
2023-03-10T17:01:27.516Z,97806.19
2023-03-10T17:03:55.453Z,97805.31
2023-03-10T17:06:28.885Z,97802.75
2023-03-10T17:08:56.765Z,97800.16
2023-03-10T17:11:29.498Z,97800.16
2023-03-10T17:13:59.789Z,97789.94
2023-03-10T17:16:29.645Z,97798.53
2023-03-10T17:18:58.779Z,97795.94
2023-03-10T17:21:28.723Z,97786.56
2023-03-10T17:23:56.212Z,97803.56
2023-03-10T17:26:23.636Z,97805.28
2023-03-10T17:28:52.115Z,97798.47
2023-03-10T17:31:23.774Z,97801.84
2023-03-10T17:33:50.915Z,97795.09
2023-03-10T17:36:19.078Z,97804.31
2023-03-10T17:38:46.279Z,97789.00
2023-03-10T17:41:16.201Z,97772.91
2023-03-10T17:43:43.546Z,97778.81
2023-03-10T17:46:19.415Z,97776.19
2023-03-10T17:48:47.274Z,97779.56
2023-03-10T17:51:16.454Z,97774.44
2023-03-10T17:53:44.572Z,97771.91
2023-03-10T17:56:12.657Z,97783.78
2023-03-10T17:58:40.108Z,97786.34
2023-03-10T18:01:15.671Z,97788.06
2023-03-10T18:03:42.918Z,97787.97
2023-03-10T18:06:15.345Z,97789.66
2023-03-10T18:08:42.720Z,97786.19
2023-03-10T18:11:10.547Z,97782.78
2023-03-10T18:13:38.156Z,97774.31
2023-03-10T18:16:06.309Z,97774.22
2023-03-10T18:18:33.962Z,97764.16
2023-03-10T18:21:01.045Z,97770.81
2023-03-10T18:23:28.215Z,97774.16
2023-03-10T18:25:55.358Z,97767.28
2023-03-10T18:28:23.651Z,97760.44
2023-03-10T18:30:52.230Z,97757.00
2023-03-10T18:33:19.677Z,97757.00
2023-03-10T18:35:47.796Z,97758.69
2023-03-10T18:38:16.877Z,97739.91
2023-03-10T18:40:44.716Z,97738.16
2023-03-10T18:43:11.846Z,97733.88
2023-03-10T18:45:44.748Z,97727.94
2023-03-10T18:48:11.876Z,97726.16
2023-03-10T18:50:38.951Z,97720.19
2023-03-10T18:53:06.018Z,97717.69
2023-03-10T18:55:33.125Z,97714.25
2023-03-10T18:58:00.242Z,97709.19
2023-03-10T19:00:27.778Z,97706.56
2023-03-10T19:02:54.934Z,97709.94
2023-03-10T19:05:22.308Z,97698.06
2023-03-10T19:07:49.410Z,97702.28
2023-03-10T19:10:18.627Z,97697.16
2023-03-10T19:12:46.227Z,97696.31
2023-03-10T19:15:15.843Z,97690.34
2023-03-10T19:17:43.118Z,97691.31
2023-03-10T19:20:13.346Z,97699.06
2023-03-10T19:22:42.344Z,97699.22
2023-03-10T19:25:12.385Z,97693.22
2023-03-10T19:27:40.829Z,97687.28
2023-03-10T19:30:11.515Z,97681.44
2023-03-10T19:32:39.766Z,97695.84
2023-03-10T19:35:09.116Z,97690.75
2023-03-10T19:37:37.868Z,97690.03
2023-03-10T19:40:08.655Z,97690.81
2023-03-10T19:42:38.739Z,97696.00
2023-03-10T19:45:06.756Z,97684.00
2023-03-10T19:47:34.007Z,97682.31
2023-03-10T19:50:01.156Z,97684.00
2023-03-10T19:52:28.317Z,97678.88
2023-03-10T19:54:55.430Z,97675.47
2023-03-10T19:57:23.359Z,97666.91
2023-03-10T19:59:50.417Z,97660.97
2023-03-10T20:02:18.454Z,97661.72
2023-03-10T20:04:45.866Z,97659.16
2023-03-10T20:07:13.053Z,97640.53
2023-03-10T20:09:40.277Z,97637.84
2023-03-10T20:12:07.387Z,97627.63
2023-03-10T20:14:34.524Z,97622.50
2023-03-10T20:17:01.715Z,97618.31
2023-03-10T20:19:28.867Z,97617.31
2023-03-10T20:21:55.888Z,97625.00
2023-03-10T20:24:23.199Z,97618.25
2023-03-10T20:26:50.424Z,97614.09
2023-03-10T20:29:17.628Z,97620.97
2023-03-10T20:31:44.819Z,97627.81
2023-03-10T20:34:17.718Z,97619.34
2023-03-10T20:36:45.954Z,97624.47
2023-03-10T20:39:13.269Z,97614.31
2023-03-10T20:41:40.360Z,97613.56
2023-03-10T20:44:09.746Z,97616.13
2023-03-10T20:46:36.784Z,97619.66
2023-03-10T20:49:06.081Z,97619.81
2023-03-10T20:51:33.189Z,97614.75
2023-03-10T20:54:00.402Z,97618.19
2023-03-10T20:56:28.842Z,97627.59
2023-03-10T20:58:59.717Z,97648.88
2023-03-10T21:01:27.381Z,97643.91
2023-03-10T21:03:55.072Z,97640.38
2023-03-10T21:06:27.321Z,97674.50
2023-03-10T21:08:54.426Z,97656.59
2023-03-10T21:11:21.901Z,97636.31
2023-03-10T21:13:49.266Z,97635.44
2023-03-10T21:16:16.391Z,97642.25
2023-03-10T21:18:43.571Z,97636.31
2023-03-10T21:21:10.821Z,97637.16
2023-03-10T21:23:41.794Z,97630.38
2023-03-10T21:26:17.186Z,97632.06
2023-03-10T21:28:44.912Z,97625.28
2023-03-10T21:31:12.550Z,97612.66
2023-03-10T21:33:41.978Z,97616.72
2023-03-10T21:36:16.771Z,97612.50
2023-03-10T21:38:44.597Z,97610.78
2023-03-10T21:41:15.776Z,97601.41
2023-03-10T21:43:42.986Z,97591.16
2023-03-10T21:46:10.220Z,97575.00
2023-03-10T21:48:37.592Z,97580.13
2023-03-10T21:51:05.119Z,97584.47
2023-03-10T21:53:32.527Z,97592.94
2023-03-10T21:56:00.955Z,97580.16
2023-03-10T21:58:28.064Z,97583.63
2023-03-10T22:00:56.366Z,97582.72
2023-03-10T22:03:23.839Z,97574.25
2023-03-10T22:05:50.872Z,97577.63
2023-03-10T22:08:18.076Z,97576.00
2023-03-10T22:10:46.236Z,97570.06
2023-03-10T22:13:13.431Z,97562.50
2023-03-10T22:15:40.846Z,97562.50
2023-03-10T22:18:08.360Z,97572.72
2023-03-10T22:20:35.717Z,97568.47
2023-03-10T22:23:02.814Z,97569.41
2023-03-10T22:25:29.829Z,97566.00
2023-03-10T22:27:57.509Z,97587.28
2023-03-10T22:30:26.392Z,97596.66
2023-03-10T22:32:54.324Z,97582.31
2023-03-10T22:35:21.596Z,97573.00
2023-03-10T22:37:49.822Z,97566.44
2023-03-10T22:40:20.029Z,97585.94
2023-03-10T22:42:47.524Z,97580.09
2023-03-10T22:45:24.228Z,97564.13
2023-03-10T22:47:55.756Z,97580.13
2023-03-10T22:50:26.573Z,97578.47
2023-03-10T22:52:53.753Z,97565.03
2023-03-10T22:55:26.507Z,97561.59
2023-03-10T22:57:53.870Z,97570.13
2023-03-10T23:00:22.649Z,97565.03
2023-03-10T23:02:52.399Z,97560.00
2023-03-10T23:05:20.637Z,97565.91
2023-03-10T23:07:48.252Z,97557.44
2023-03-10T23:10:19.775Z,97547.25
2023-03-10T23:12:46.859Z,97548.16
2023-03-10T23:15:27.678Z,97560.13
2023-03-10T23:17:56.293Z,97558.44
2023-03-10T23:20:27.573Z,97567.81
2023-03-10T23:22:56.846Z,97555.06
2023-03-10T23:25:33.696Z,97552.56
2023-03-10T23:28:02.170Z,97561.06
2023-03-10T23:30:31.132Z,97562.03
2023-03-10T23:32:58.648Z,97564.56
2023-03-10T23:35:31.199Z,97560.31
2023-03-10T23:38:00.462Z,97556.91
2023-03-10T23:40:28.602Z,97549.31
2023-03-10T23:42:57.536Z,97543.53
2023-03-10T23:45:26.496Z,97547.69
2023-03-10T23:47:55.703Z,97548.50
2023-03-10T23:50:26.456Z,97540.88
2023-03-10T23:52:53.943Z,97553.63
2023-03-10T23:55:27.678Z,97547.69
2023-03-10T23:57:54.857Z,97545.22
